Time;durP1;ratioP1;P1;durP2;ratioP2;P2;SDS_P1;SDS_P2;PMS_P1;PMS_P2;Temp;Humidity;BMP_temperature;BMP_pressure;BME280_temperature;BME280_humidity;BME280_pressure;Samples;Min_cycle;Max_cycle;Signal;HPM_P1;HPM_P2
2023/07/18 00:02:04;;;;;;;;;;;24.00;63.10;;;;;;8313574;28;19905;-71
2023/07/18 00:06:05;;;;;;;;;;;24.00;63.10;;;;;;8330822;28;19920;-71
2023/07/18 00:10:06;;;;;;;;;;;24.00;63.10;;;;;;8330731;28;19953;-71
2023/07/18 00:14:06;;;;;;;;;;;24.00;63.10;;;;;;8328894;28;19913;-71
2023/07/18 00:18:07;;;;;;;;;;;23.90;63.80;;;;;;8330401;28;19955;-71
2023/07/18 00:22:07;;;;;;;;;;;24.00;63.10;;;;;;8330242;28;20005;-71
2023/07/18 00:26:08;;;;;;;;;;;24.00;63.00;;;;;;8312270;28;20270;-71
2023/07/18 00:30:09;;;;;;;;;;;24.00;63.00;;;;;;8330064;28;20376;-71
2023/07/18 00:34:11;;;;;;;;;;;24.00;63.00;;;;;;8329072;28;19946;-71
2023/07/18 00:38:11;;;;;;;;;;;24.00;63.00;;;;;;8311807;28;19991;-71
2023/07/18 00:42:12;;;;;;;;;;;24.00;63.00;;;;;;8329581;28;19916;-71
2023/07/18 00:46:13;;;;;;;;;;;24.00;63.00;;;;;;8329748;28;20291;-71
2023/07/18 00:50:15;;;;;;;;;;;24.00;62.90;;;;;;8327999;28;19909;-71
2023/07/18 00:54:16;;;;;;;;;;;24.00;63.00;;;;;;8329218;28;20313;-71
2023/07/18 00:58:17;;;;;;;;;;;24.00;63.00;;;;;;8280143;28;19976;-71
2023/07/18 01:02:17;;;;;;;;;;;24.00;62.90;;;;;;8296319;28;19909;-71
2023/07/18 01:06:18;;;;;;;;;;;24.00;62.90;;;;;;8296434;28;19915;-71
2023/07/18 01:10:25;;;;;;;;;;;24.00;62.90;;;;;;8296094;28;19913;-71
2023/07/18 01:14:26;;;;;;;;;;;24.00;62.90;;;;;;8311320;28;19914;-71
2023/07/18 01:18:26;;;;;;;;;;;24.00;62.90;;;;;;8295816;28;19917;-71
2023/07/18 01:22:27;;;;;;;;;;;24.00;62.90;;;;;;8295751;28;19916;-70
2023/07/18 01:26:27;;;;;;;;;;;24.00;62.90;;;;;;8310475;28;19916;-71
2023/07/18 01:30:28;;;;;;;;;;;23.90;62.80;;;;;;8310715;28;19916;-71
2023/07/18 01:34:28;;;;;;;;;;;23.90;62.80;;;;;;8295422;28;19964;-71
2023/07/18 01:38:29;;;;;;;;;;;23.90;62.80;;;;;;8295010;28;19916;-71
2023/07/18 01:42:29;;;;;;;;;;;24.00;62.90;;;;;;8310396;28;20473;-71
2023/07/18 01:46:30;;;;;;;;;;;24.00;62.90;;;;;;8294990;28;19920;-71
2023/07/18 01:50:31;;;;;;;;;;;23.90;62.80;;;;;;8277705;28;19920;-70
2023/07/18 01:54:31;;;;;;;;;;;23.90;62.80;;;;;;8296572;28;19918;-70
2023/07/18 01:58:32;;;;;;;;;;;23.90;62.90;;;;;;8326470;28;20366;-71
2023/07/18 02:02:32;;;;;;;;;;;23.90;62.90;;;;;;8293448;28;19932;-71
2023/07/18 02:06:33;;;;;;;;;;;23.90;63.60;;;;;;8309756;28;19941;-71
2023/07/18 02:10:33;;;;;;;;;;;23.90;62.80;;;;;;8293414;28;19917;-71
2023/07/18 02:14:36;;;;;;;;;;;23.90;62.90;;;;;;8327540;28;20166;-71
2023/07/18 02:18:37;;;;;;;;;;;23.90;62.90;;;;;;8327089;28;20164;-71
2023/07/18 02:22:39;;;;;;;;;;;23.90;62.90;;;;;;8293549;28;19909;-71
2023/07/18 02:26:40;;;;;;;;;;;23.90;63.10;;;;;;8326992;28;20353;-71
2023/07/18 02:30:41;;;;;;;;;;;23.90;63.00;;;;;;8326884;28;20389;-71
2023/07/18 02:34:43;;;;;;;;;;;23.90;63.10;;;;;;8326322;28;19996;-71
2023/07/18 02:38:44;;;;;;;;;;;23.90;63.00;;;;;;8327501;28;19909;-71
2023/07/18 02:42:44;;;;;;;;;;;23.90;63.00;;;;;;8309238;28;19909;-71
2023/07/18 02:46:45;;;;;;;;;;;23.90;62.90;;;;;;8326882;28;19905;-71
2023/07/18 02:50:45;;;;;;;;;;;23.90;62.90;;;;;;8326585;28;19956;-71
2023/07/18 02:54:46;;;;;;;;;;;23.90;62.90;;;;;;8326792;28;20008;-71
2023/07/18 02:58:48;;;;;;;;;;;23.90;62.90;;;;;;8313984;28;19959;-71
2023/07/18 03:02:49;;;;;;;;;;;23.90;62.90;;;;;;8315268;28;19905;-71
2023/07/18 03:06:53;;;;;;;;;;;23.90;62.90;;;;;;8332414;28;19905;-71
2023/07/18 03:10:53;;;;;;;;;;;23.90;62.90;;;;;;8332662;28;19913;-71
2023/07/18 03:14:54;;;;;;;;;;;23.90;62.90;;;;;;8332416;28;19924;-71
2023/07/18 03:18:54;;;;;;;;;;;23.90;62.90;;;;;;8298082;28;19909;-70
2023/07/18 03:22:55;;;;;;;;;;;23.90;62.90;;;;;;8332264;28;19950;-71
2023/07/18 03:26:55;;;;;;;;;;;23.90;62.90;;;;;;8331671;28;19904;-71
2023/07/18 03:30:57;;;;;;;;;;;23.90;62.90;;;;;;8332492;28;19921;-70
2023/07/18 03:34:57;;;;;;;;;;;23.90;62.90;;;;;;8313859;28;20015;-71
2023/07/18 03:38:58;;;;;;;;;;;23.90;62.90;;;;;;8331675;28;19909;-71
2023/07/18 03:42:58;;;;;;;;;;;23.90;62.90;;;;;;8313868;28;20297;-71
2023/07/18 03:46:59;;;;;;;;;;;23.90;62.90;;;;;;8313593;28;19913;-71
2023/07/18 03:51:05;;;;;;;;;;;23.90;62.90;;;;;;8331520;28;20370;-71
2023/07/18 03:55:06;;;;;;;;;;;23.90;62.90;;;;;;8331547;28;20004;-71
2023/07/18 03:59:07;;;;;;;;;;;23.90;62.90;;;;;;8313947;28;19912;-71
2023/07/18 04:03:08;;;;;;;;;;;23.80;62.80;;;;;;8314533;28;19909;-71
2023/07/18 04:07:09;;;;;;;;;;;23.90;62.90;;;;;;8332372;28;19905;-71
2023/07/18 04:11:09;;;;;;;;;;;23.90;62.90;;;;;;8297926;28;20452;-71
2023/07/18 04:15:11;;;;;;;;;;;23.80;62.80;;;;;;8331470;28;20015;-71
2023/07/18 04:19:12;;;;;;;;;;;23.80;62.90;;;;;;8332233;28;19913;-70
2023/07/18 04:23:12;;;;;;;;;;;23.80;63.00;;;;;;8331898;28;19905;-71
2023/07/18 04:27:13;;;;;;;;;;;23.80;63.00;;;;;;8332039;28;20278;-71
2023/07/18 04:31:13;;;;;;;;;;;23.80;63.00;;;;;;8332192;28;20394;-71
2023/07/18 04:35:14;;;;;;;;;;;23.80;63.00;;;;;;8332537;28;19924;-71
2023/07/18 04:39:14;;;;;;;;;;;23.80;63.00;;;;;;8314109;28;20330;-71
2023/07/18 04:43:15;;;;;;;;;;;23.80;62.90;;;;;;8333870;28;19920;-71
2023/07/18 04:47:15;;;;;;;;;;;23.90;63.00;;;;;;8315940;28;19915;-71
2023/07/18 04:51:16;;;;;;;;;;;23.80;62.90;;;;;;8336081;28;19909;-71
2023/07/18 04:55:18;;;;;;;;;;;23.90;63.00;;;;;;8318354;28;19913;-71
2023/07/18 04:59:18;;;;;;;;;;;23.90;62.90;;;;;;8330123;28;20420;-71
2023/07/18 05:03:19;;;;;;;;;;;23.80;62.90;;;;;;8330778;28;20256;-71
2023/07/18 05:07:20;;;;;;;;;;;23.80;62.90;;;;;;8312232;28;20330;-70
2023/07/18 05:11:20;;;;;;;;;;;23.80;62.90;;;;;;8329045;28;20359;-71
2023/07/18 05:15:21;;;;;;;;;;;23.80;62.90;;;;;;8328770;28;20359;-71
2023/07/18 05:19:22;;;;;;;;;;;23.80;62.80;;;;;;8310836;28;19943;-71
2023/07/18 05:23:22;;;;;;;;;;;23.80;62.90;;;;;;8311275;28;19909;-71
2023/07/18 05:27:23;;;;;;;;;;;23.80;62.80;;;;;;8303772;28;20317;-71
2023/07/18 05:31:23;;;;;;;;;;;23.80;62.90;;;;;;8296127;28;19905;-71
2023/07/18 05:35:24;;;;;;;;;;;23.80;63.00;;;;;;8295816;28;19913;-71
2023/07/18 05:39:27;;;;;;;;;;;23.80;63.00;;;;;;8311293;28;19921;-71
2023/07/18 05:43:28;;;;;;;;;;;23.80;63.10;;;;;;8279223;28;19913;-71
2023/07/18 05:47:29;;;;;;;;;;;23.80;63.00;;;;;;8296082;28;20008;-71
2023/07/18 05:51:31;;;;;;;;;;;23.80;63.00;;;;;;8278176;28;19905;-71
2023/07/18 05:55:31;;;;;;;;;;;23.80;63.00;;;;;;8319834;28;19955;-71
2023/07/18 05:59:32;;;;;;;;;;;23.80;63.00;;;;;;8327949;28;19910;-71
2023/07/18 06:03:33;;;;;;;;;;;23.80;63.00;;;;;;8327816;28;19952;-71
2023/07/18 06:07:33;;;;;;;;;;;23.80;62.90;;;;;;8309726;28;20286;-71
2023/07/18 06:11:34;;;;;;;;;;;23.80;62.90;;;;;;8327239;28;19905;-70
2023/07/18 06:15:34;;;;;;;;;;;23.80;62.90;;;;;;8326198;28;19924;-71
2023/07/18 06:19:35;;;;;;;;;;;23.80;63.00;;;;;;8309717;28;19909;-71
2023/07/18 06:23:36;;;;;;;;;;;23.80;62.90;;;;;;8309515;28;19905;-71
2023/07/18 06:27:37;;;;;;;;;;;23.80;63.00;;;;;;8267209;28;19917;-71
2023/07/18 06:31:38;;;;;;;;;;;23.80;62.90;;;;;;8262331;28;19917;-71
2023/07/18 06:35:38;;;;;;;;;;;23.80;62.90;;;;;;8283255;28;19909;-71
2023/07/18 06:39:39;;;;;;;;;;;23.80;62.90;;;;;;8300836;28;19909;-71
2023/07/18 06:43:39;;;;;;;;;;;23.80;63.00;;;;;;8300914;28;19909;-71
2023/07/18 06:47:40;;;;;;;;;;;23.80;63.00;;;;;;8300423;28;19963;-71
2023/07/18 06:51:41;;;;;;;;;;;23.80;63.00;;;;;;8300183;28;19910;-71
2023/07/18 06:55:41;;;;;;;;;;;23.80;63.00;;;;;;8311348;28;19931;-70
2023/07/18 06:59:42;;;;;;;;;;;23.80;63.00;;;;;;8332896;28;19957;-71
2023/07/18 07:03:42;;;;;;;;;;;23.80;63.00;;;;;;8332868;28;19909;-70
2023/07/18 07:07:43;;;;;;;;;;;23.80;63.00;;;;;;8333104;28;19905;-71
2023/07/18 07:11:44;;;;;;;;;;;23.80;63.00;;;;;;8314635;28;20007;-71
2023/07/18 07:15:44;;;;;;;;;;;23.80;63.00;;;;;;8298103;28;20378;-71
2023/07/18 07:19:45;;;;;;;;;;;23.80;63.00;;;;;;8314655;28;20354;-71
2023/07/18 07:23:45;;;;;;;;;;;23.80;63.00;;;;;;8332506;28;20346;-72
2023/07/18 07:27:46;;;;;;;;;;;23.80;63.00;;;;;;8331857;28;20381;-71
2023/07/18 07:31:47;;;;;;;;;;;23.80;62.90;;;;;;8330783;28;20043;-71
2023/07/18 07:35:47;;;;;;;;;;;23.80;62.90;;;;;;8314090;28;19909;-71
2023/07/18 07:39:48;;;;;;;;;;;23.80;63.70;;;;;;8331820;28;19909;-71
2023/07/18 07:43:48;;;;;;;;;;;23.80;62.90;;;;;;8329985;28;19909;-71
2023/07/18 07:47:49;;;;;;;;;;;23.80;62.90;;;;;;8331259;28;19916;-71
2023/07/18 07:51:49;;;;;;;;;;;23.80;62.90;;;;;;8331292;28;19905;-72
2023/07/18 07:55:50;;;;;;;;;;;23.80;62.90;;;;;;8313415;28;20302;-71
2023/07/18 07:59:51;;;;;;;;;;;23.80;62.90;;;;;;8313379;28;19909;-71
2023/07/18 08:03:51;;;;;;;;;;;23.80;63.00;;;;;;8331040;28;19913;-71
2023/07/18 08:07:52;;;;;;;;;;;23.80;63.00;;;;;;8312863;28;19909;-71
2023/07/18 08:11:53;;;;;;;;;;;23.80;63.00;;;;;;8312939;28;19909;-71
2023/07/18 08:15:54;;;;;;;;;;;23.80;63.00;;;;;;8295814;28;20298;-71
2023/07/18 08:19:55;;;;;;;;;;;23.80;63.00;;;;;;8297475;28;19905;-71
2023/07/18 08:23:55;;;;;;;;;;;23.80;63.00;;;;;;8297315;28;20419;-71
2023/07/18 08:27:56;;;;;;;;;;;23.80;63.00;;;;;;8297262;28;19963;-71
2023/07/18 08:31:58;;;;;;;;;;;23.80;62.90;;;;;;8297222;28;19913;-71
2023/07/18 08:35:59;;;;;;;;;;;23.80;62.90;;;;;;8297366;28;19909;-70
2023/07/18 08:39:59;;;;;;;;;;;23.80;62.90;;;;;;8297054;28;19909;-71
2023/07/18 08:44:00;;;;;;;;;;;23.80;62.80;;;;;;8296952;28;19909;-71
2023/07/18 08:48:00;;;;;;;;;;;23.80;62.90;;;;;;8296823;28;19949;-71
2023/07/18 08:52:01;;;;;;;;;;;23.80;62.90;;;;;;8296399;28;19917;-71
2023/07/18 08:56:05;;;;;;;;;;;23.80;62.90;;;;;;8295677;28;19924;-71
2023/07/18 09:00:07;;;;;;;;;;;23.80;62.90;;;;;;8297050;28;19910;-71
2023/07/18 09:04:08;;;;;;;;;;;23.80;62.90;;;;;;8295180;28;20260;-71
2023/07/18 09:08:08;;;;;;;;;;;23.80;62.90;;;;;;8296216;28;19913;-71
2023/07/18 09:12:10;;;;;;;;;;;23.80;62.80;;;;;;8296120;28;19913;-71
2023/07/18 09:16:12;;;;;;;;;;;23.80;62.80;;;;;;8315284;28;19960;-71
2023/07/18 09:20:16;;;;;;;;;;;23.80;62.90;;;;;;8311002;28;19906;-71
2023/07/18 09:24:16;;;;;;;;;;;23.80;62.90;;;;;;8328704;28;20318;-71
2023/07/18 09:28:17;;;;;;;;;;;23.80;63.00;;;;;;8279253;28;19909;-71
2023/07/18 09:32:18;;;;;;;;;;;23.80;62.90;;;;;;8310797;28;19916;-71
2023/07/18 09:36:20;;;;;;;;;;;23.80;62.80;;;;;;8311029;28;20397;-71
2023/07/18 09:40:20;;;;;;;;;;;23.80;62.80;;;;;;8278009;28;20004;-71
2023/07/18 09:44:25;;;;;;;;;;;23.80;62.80;;;;;;8295747;28;19909;-71
2023/07/18 09:48:27;;;;;;;;;;;23.80;62.80;;;;;;8295453;28;19912;-71
2023/07/18 09:52:28;;;;;;;;;;;23.80;62.80;;;;;;8310199;28;19991;-72
2023/07/18 09:56:30;;;;;;;;;;;23.80;62.80;;;;;;8310128;28;19913;-71
2023/07/18 10:00:32;;;;;;;;;;;23.80;62.80;;;;;;8295047;28;19944;-71
2023/07/18 10:04:36;;;;;;;;;;;23.80;62.80;;;;;;8294628;28;20012;-71
2023/07/18 10:08:40;;;;;;;;;;;23.80;62.80;;;;;;8295064;28;19912;-70
2023/07/18 10:12:53;;;;;;;;;;;23.80;62.70;;;;;;8294824;28;19912;-71
2023/07/18 10:16:54;;;;;;;;;;;23.80;62.70;;;;;;8309904;28;20386;-71
2023/07/18 10:21:01;;;;;;;;;;;23.80;62.70;;;;;;8294619;28;20345;-71
2023/07/18 10:25:05;;;;;;;;;;;23.80;62.70;;;;;;8314749;28;19959;-71
2023/07/18 10:29:06;;;;;;;;;;;23.80;62.80;;;;;;8327241;28;19912;-71
2023/07/18 10:33:08;;;;;;;;;;;23.80;62.70;;;;;;8309453;28;19909;-71
2023/07/18 10:37:09;;;;;;;;;;;23.80;62.70;;;;;;8309347;28;20312;-71
2023/07/18 10:41:09;;;;;;;;;;;23.80;62.80;;;;;;8326949;28;19909;-71
2023/07/18 10:45:10;;;;;;;;;;;23.80;62.80;;;;;;8326742;28;20009;-71
2023/07/18 10:49:10;;;;;;;;;;;23.80;62.70;;;;;;8326930;28;19909;-71
2023/07/18 10:53:16;;;;;;;;;;;23.80;62.80;;;;;;8326863;28;20267;-71
2023/07/18 10:57:22;;;;;;;;;;;23.80;62.80;;;;;;8327129;28;20382;-70
2023/07/18 11:01:23;;;;;;;;;;;23.80;62.80;;;;;;8326699;28;19955;-71
2023/07/18 11:05:24;;;;;;;;;;;23.80;62.70;;;;;;8326677;28;19909;-71
2023/07/18 11:09:25;;;;;;;;;;;23.80;62.70;;;;;;8326466;28;19905;-71
2023/07/18 11:13:27;;;;;;;;;;;23.80;62.70;;;;;;8326427;28;19909;-70
2023/07/18 11:17:27;;;;;;;;;;;23.80;62.60;;;;;;8326372;28;19940;-71
2023/07/18 11:21:28;;;;;;;;;;;23.80;62.60;;;;;;8330969;28;19915;-71
2023/07/18 11:25:29;;;;;;;;;;;23.80;62.60;;;;;;8332048;28;20007;-71
2023/07/18 11:29:29;;;;;;;;;;;23.80;62.60;;;;;;8332026;28;19909;-71
2023/07/18 11:33:33;;;;;;;;;;;23.80;62.60;;;;;;8331898;28;19912;-71
2023/07/18 11:37:34;;;;;;;;;;;23.80;62.60;;;;;;8331729;28;19916;-71
2023/07/18 11:41:35;;;;;;;;;;;23.80;62.50;;;;;;8331624;28;20494;-71
2023/07/18 11:45:35;;;;;;;;;;;23.80;62.60;;;;;;8331133;28;20000;-71
2023/07/18 11:49:36;;;;;;;;;;;23.80;62.60;;;;;;8330503;28;19912;-71
2023/07/18 11:53:36;;;;;;;;;;;23.80;62.60;;;;;;8331849;28;19913;-71
2023/07/18 11:57:37;;;;;;;;;;;23.80;62.60;;;;;;8331548;28;19905;-71
2023/07/18 12:01:38;;;;;;;;;;;23.80;62.50;;;;;;8297926;28;19916;-71
2023/07/18 12:05:38;;;;;;;;;;;23.80;62.50;;;;;;8332531;28;19909;-71
2023/07/18 12:09:39;;;;;;;;;;;23.80;62.50;;;;;;8332480;28;19909;-71
2023/07/18 12:13:40;;;;;;;;;;;23.80;62.40;;;;;;8332160;28;19905;-71
2023/07/18 12:17:41;;;;;;;;;;;23.90;62.40;;;;;;8332038;28;19928;-71
2023/07/18 12:21:41;;;;;;;;;;;23.90;62.50;;;;;;8332155;28;19992;-71
2023/07/18 12:25:42;;;;;;;;;;;23.80;62.40;;;;;;8332547;28;19917;-71
2023/07/18 12:29:42;;;;;;;;;;;23.80;62.40;;;;;;8330935;28;19909;-71
2023/07/18 12:33:43;;;;;;;;;;;23.80;62.40;;;;;;8332746;28;20012;-71
2023/07/18 12:37:44;;;;;;;;;;;23.90;62.40;;;;;;8314392;28;20019;-70
2023/07/18 12:41:44;;;;;;;;;;;23.90;62.30;;;;;;8334071;28;19909;-71
2023/07/18 12:45:45;;;;;;;;;;;23.90;62.30;;;;;;8317000;28;19912;-71
2023/07/18 12:49:46;;;;;;;;;;;23.90;62.30;;;;;;8334643;28;19963;-71
2023/07/18 12:53:46;;;;;;;;;;;23.90;62.30;;;;;;8334560;28;19913;-71
2023/07/18 12:57:48;;;;;;;;;;;23.90;62.30;;;;;;8332619;28;20359;-71
2023/07/18 13:01:49;;;;;;;;;;;23.90;62.30;;;;;;8281230;28;19909;-71
2023/07/18 13:05:49;;;;;;;;;;;23.90;62.30;;;;;;8296858;28;19917;-71
2023/07/18 13:09:50;;;;;;;;;;;23.90;62.30;;;;;;8329138;28;19948;-71
2023/07/18 13:13:51;;;;;;;;;;;23.90;62.30;;;;;;8328895;28;20294;-71
2023/07/18 13:17:51;;;;;;;;;;;23.90;62.30;;;;;;8294886;28;20114;-71
2023/07/18 13:21:53;;;;;;;;;;;23.90;62.20;;;;;;8328801;28;20043;-71
2023/07/18 13:25:54;;;;;;;;;;;23.90;62.30;;;;;;8311139;28;19913;-71
2023/07/18 13:29:55;;;;;;;;;;;23.90;62.30;;;;;;8328927;28;19935;-71
2023/07/18 13:33:55;;;;;;;;;;;23.90;62.20;;;;;;8311145;28;19918;-70
2023/07/18 13:37:56;;;;;;;;;;;23.90;62.20;;;;;;8311272;28;20362;-71
2023/07/18 13:41:57;;;;;;;;;;;23.90;62.20;;;;;;8327273;28;19967;-71
2023/07/18 13:45:57;;;;;;;;;;;23.90;62.20;;;;;;8328909;28;19909;-71
2023/07/18 13:49:58;;;;;;;;;;;23.90;62.20;;;;;;8311094;28;19916;-71
2023/07/18 13:53:58;;;;;;;;;;;23.90;62.20;;;;;;8328133;28;20352;-71
2023/07/18 13:57:59;;;;;;;;;;;23.90;62.20;;;;;;8327914;28;19909;-71
2023/07/18 14:01:59;;;;;;;;;;;23.90;62.20;;;;;;8327737;28;19948;-71
2023/07/18 14:06:00;;;;;;;;;;;23.90;62.10;;;;;;8310032;28;19952;-70
2023/07/18 14:10:00;;;;;;;;;;;23.90;62.10;;;;;;8327453;28;19955;-71
2023/07/18 14:14:01;;;;;;;;;;;23.90;62.10;;;;;;8309663;28;19917;-71
2023/07/18 14:18:02;;;;;;;;;;;23.90;62.10;;;;;;8327333;28;20334;-71
2023/07/18 14:22:04;;;;;;;;;;;23.90;62.20;;;;;;8326189;28;20309;-72
2023/07/18 14:26:05;;;;;;;;;;;23.90;62.20;;;;;;8327456;28;19915;-71
2023/07/18 14:30:05;;;;;;;;;;;23.90;62.20;;;;;;8309564;28;19909;-71
2023/07/18 14:34:06;;;;;;;;;;;23.90;62.10;;;;;;8309546;28;19913;-71
2023/07/18 14:38:07;;;;;;;;;;;23.90;62.10;;;;;;8327113;28;19909;-71
2023/07/18 14:42:08;;;;;;;;;;;23.90;62.10;;;;;;8309425;28;19905;-70
2023/07/18 14:46:09;;;;;;;;;;;23.90;62.10;;;;;;8325841;28;20004;-71
2023/07/18 14:50:10;;;;;;;;;;;23.90;62.80;;;;;;8309362;28;20002;-71
2023/07/18 14:54:10;;;;;;;;;;;23.90;62.10;;;;;;8329773;28;19913;-71
2023/07/18 14:58:11;;;;;;;;;;;23.90;62.10;;;;;;8333399;28;19909;-71
2023/07/18 15:02:11;;;;;;;;;;;23.90;62.10;;;;;;8333263;28;19944;-71
2023/07/18 15:06:12;;;;;;;;;;;23.90;62.10;;;;;;8333183;28;19913;-71
2023/07/18 15:10:13;;;;;;;;;;;23.90;62.00;;;;;;8332999;28;19920;-71
2023/07/18 15:14:14;;;;;;;;;;;24.00;62.10;;;;;;8332441;28;19921;-71
2023/07/18 15:18:15;;;;;;;;;;;23.90;62.00;;;;;;8333139;28;19936;-70
2023/07/18 15:22:15;;;;;;;;;;;23.90;62.00;;;;;;8314691;28;19909;-71
2023/07/18 15:26:16;;;;;;;;;;;23.90;62.10;;;;;;8332087;28;19909;-71
2023/07/18 15:30:17;;;;;;;;;;;23.90;62.10;;;;;;8314840;28;19940;-71
2023/07/18 15:34:17;;;;;;;;;;;23.90;62.10;;;;;;8332205;28;20290;-71
2023/07/18 15:38:18;;;;;;;;;;;23.90;62.10;;;;;;8331810;28;19913;-71
2023/07/18 15:42:19;;;;;;;;;;;23.90;62.10;;;;;;8331537;28;20374;-71
2023/07/18 15:46:19;;;;;;;;;;;23.90;62.10;;;;;;8331796;28;20318;-71
2023/07/18 15:50:20;;;;;;;;;;;23.90;62.10;;;;;;8331524;28;19905;-71
2023/07/18 15:54:21;;;;;;;;;;;23.90;62.10;;;;;;8313715;28;20004;-71
2023/07/18 15:58:21;;;;;;;;;;;23.90;62.10;;;;;;8296925;28;19909;-71
2023/07/18 16:02:22;;;;;;;;;;;23.90;62.10;;;;;;8331080;28;19920;-71
2023/07/18 16:06:23;;;;;;;;;;;23.90;62.10;;;;;;8330712;28;19913;-71
2023/07/18 16:10:23;;;;;;;;;;;23.90;62.10;;;;;;8330704;28;19905;-71
2023/07/18 16:14:24;;;;;;;;;;;23.90;62.10;;;;;;8330521;28;20378;-71
2023/07/18 16:18:24;;;;;;;;;;;23.90;62.20;;;;;;8313463;28;19967;-71
2023/07/18 16:22:25;;;;;;;;;;;23.90;62.20;;;;;;8330520;28;19917;-71
2023/07/18 16:26:25;;;;;;;;;;;23.90;62.20;;;;;;8313145;28;19909;-71
2023/07/18 16:30:26;;;;;;;;;;;23.90;62.10;;;;;;8330436;28;19905;-71
2023/07/18 16:34:27;;;;;;;;;;;23.90;62.20;;;;;;8330016;28;19982;-71
2023/07/18 16:38:28;;;;;;;;;;;23.90;62.10;;;;;;8312486;28;19916;-71
2023/07/18 16:42:28;;;;;;;;;;;23.90;62.10;;;;;;8329948;28;19913;-71
2023/07/18 16:46:31;;;;;;;;;;;23.90;62.10;;;;;;8329850;28;19967;-71
2023/07/18 16:50:32;;;;;;;;;;;23.90;62.90;;;;;;8312264;28;19916;-71
2023/07/18 16:54:32;;;;;;;;;;;23.90;62.10;;;;;;8329333;28;19917;-71
2023/07/18 16:58:33;;;;;;;;;;;23.90;62.10;;;;;;8295000;28;19909;-71
2023/07/18 17:02:34;;;;;;;;;;;23.90;62.10;;;;;;8327786;28;19951;-71
2023/07/18 17:06:34;;;;;;;;;;;23.90;62.10;;;;;;8310708;28;19909;-71
2023/07/18 17:10:35;;;;;;;;;;;24.00;60.40;;;;;;8311093;28;19909;-70
2023/07/18 17:14:35;;;;;;;;;;;24.10;61.00;;;;;;8328010;28;20008;-71
2023/07/18 17:18:36;;;;;;;;;;;24.10;61.70;;;;;;8327699;28;19905;-71
2023/07/18 17:22:37;;;;;;;;;;;24.20;61.50;;;;;;8328644;28;20208;-71
2023/07/18 17:26:37;;;;;;;;;;;24.20;60.80;;;;;;8292341;28;20278;-70
2023/07/18 17:30:38;;;;;;;;;;;24.20;59.90;;;;;;8278156;28;19909;-71
2023/07/18 17:34:38;;;;;;;;;;;24.20;61.80;;;;;;8295414;28;20276;-71
2023/07/18 17:38:39;;;;;;;;;;;24.30;62.10;;;;;;8294533;28;19967;-70
2023/07/18 17:42:40;;;;;;;;;;;24.30;62.40;;;;;;8295460;28;19959;-71
2023/07/18 17:46:41;;;;;;;;;;;24.30;62.10;;;;;;8294722;28;19927;-71
2023/07/18 17:50:41;;;;;;;;;;;24.30;62.00;;;;;;8299393;28;19909;-71
2023/07/18 17:54:42;;;;;;;;;;;24.30;62.70;;;;;;8295924;28;19928;-71
2023/07/18 17:58:42;;;;;;;;;;;24.40;65.50;;;;;;8317483;28;19917;-71
2023/07/18 18:02:43;;;;;;;;;;;24.40;66.50;;;;;;8316157;28;19921;-71
2023/07/18 18:06:43;;;;;;;;;;;24.40;67.00;;;;;;8317928;28;19905;-71
2023/07/18 18:10:45;;;;;;;;;;;24.50;67.30;;;;;;8311415;28;19932;-71
2023/07/18 18:14:45;;;;;;;;;;;24.50;67.30;;;;;;8309455;28;19944;-71
2023/07/18 18:18:46;;;;;;;;;;;24.50;66.90;;;;;;8311584;28;19932;-71
2023/07/18 18:22:46;;;;;;;;;;;24.50;65.20;;;;;;8313054;28;19913;-70
2023/07/18 18:26:47;;;;;;;;;;;24.50;64.90;;;;;;8315927;28;19918;-72
2023/07/18 18:30:48;;;;;;;;;;;24.60;65.50;;;;;;8303223;28;19940;-73
2023/07/18 18:34:49;;;;;;;;;;;24.60;65.10;;;;;;8318489;28;19916;-71
2023/07/18 18:38:50;;;;;;;;;;;24.70;64.40;;;;;;8325510;28;19940;-71
2023/07/18 18:42:51;;;;;;;;;;;24.70;64.10;;;;;;8321042;28;20338;-72
2023/07/18 18:46:51;;;;;;;;;;;24.80;63.90;;;;;;8324656;28;19921;-69
2023/07/18 18:50:52;;;;;;;;;;;24.80;63.90;;;;;;8323400;28;19921;-70
2023/07/18 18:54:54;;;;;;;;;;;24.80;63.40;;;;;;8322545;28;20392;-70
2023/07/18 18:58:55;;;;;;;;;;;24.80;63.50;;;;;;8321548;28;19909;-70
2023/07/18 19:02:57;;;;;;;;;;;24.80;63.30;;;;;;8322793;28;19939;-70
2023/07/18 19:06:57;;;;;;;;;;;24.90;63.30;;;;;;8318139;28;19931;-76
2023/07/18 19:10:58;;;;;;;;;;;24.90;63.50;;;;;;8339824;28;19917;-70
2023/07/18 19:14:58;;;;;;;;;;;24.90;62.80;;;;;;8336843;28;19933;-72
2023/07/18 19:18:59;;;;;;;;;;;24.80;64.10;;;;;;8329812;28;19917;-70
2023/07/18 19:22:59;;;;;;;;;;;24.80;64.10;;;;;;8361353;28;19916;-70
2023/07/18 19:27:00;;;;;;;;;;;24.90;63.60;;;;;;8358406;28;19955;-73
2023/07/18 19:31:01;;;;;;;;;;;24.80;63.70;;;;;;8350535;28;19951;-69
2023/07/18 19:35:02;;;;;;;;;;;24.80;62.70;;;;;;8325466;28;19936;-70
2023/07/18 19:39:03;;;;;;;;;;;24.80;63.60;;;;;;8318620;28;20007;-69
2023/07/18 19:43:03;;;;;;;;;;;24.80;64.10;;;;;;8304277;28;19921;-71
2023/07/18 19:47:04;;;;;;;;;;;24.80;63.20;;;;;;8305147;28;20039;-70
2023/07/18 19:51:05;;;;;;;;;;;24.70;63.40;;;;;;8319947;28;19909;-70
2023/07/18 19:55:07;;;;;;;;;;;24.80;62.70;;;;;;8320377;28;19952;-70
2023/07/18 19:59:09;;;;;;;;;;;24.80;63.10;;;;;;8318240;28;19913;-70
2023/07/18 20:03:09;;;;;;;;;;;24.80;62.50;;;;;;8318248;28;19905;-70
2023/07/18 20:07:10;;;;;;;;;;;24.80;61.90;;;;;;8318773;28;19924;-70
2023/07/18 20:11:10;;;;;;;;;;;24.80;62.70;;;;;;8306353;28;20390;-73
2023/07/18 20:15:11;;;;;;;;;;;24.70;62.90;;;;;;8321368;28;20029;-70
2023/07/18 20:19:11;;;;;;;;;;;24.60;62.00;;;;;;8326079;28;19913;-69
2023/07/18 20:23:12;;;;;;;;;;;24.60;62.40;;;;;;8327531;28;20629;-70
2023/07/18 20:27:12;;;;;;;;;;;24.60;62.60;;;;;;8292409;28;20385;-69
2023/07/18 20:31:13;;;;;;;;;;;24.70;62.80;;;;;;8325947;28;19917;-72
2023/07/18 20:35:14;;;;;;;;;;;24.70;63.10;;;;;;8322794;28;20317;-70
2023/07/18 20:39:14;;;;;;;;;;;24.70;63.10;;;;;;8324396;28;19944;-70
2023/07/18 20:43:15;;;;;;;;;;;24.70;63.10;;;;;;8324888;28;19963;-70
2023/07/18 20:47:15;;;;;;;;;;;24.70;63.10;;;;;;8324629;28;20378;-70
2023/07/18 20:51:16;;;;;;;;;;;24.60;63.10;;;;;;8323048;28;19917;-68
2023/07/18 20:55:16;;;;;;;;;;;24.60;63.20;;;;;;8324981;28;19964;-74
2023/07/18 20:59:17;;;;;;;;;;;24.70;63.40;;;;;;8307232;28;19913;-72
2023/07/18 21:03:18;;;;;;;;;;;24.70;63.40;;;;;;8325844;28;19905;-72
2023/07/18 21:07:18;;;;;;;;;;;24.70;63.70;;;;;;8322991;28;19990;-70
2023/07/18 21:11:19;;;;;;;;;;;24.70;63.80;;;;;;8307535;28;19956;-71
2023/07/18 21:15:28;;;;;;;;;;;24.70;63.50;;;;;;8504594;27;19911;-51
2023/07/18 21:19:29;;;;;;;;;;;24.70;63.40;;;;;;8502397;27;19923;-48
2023/07/18 21:23:29;;;;;;;;;;;24.70;63.80;;;;;;8502677;27;19919;-47
2023/07/18 21:27:30;;;;;;;;;;;24.70;63.30;;;;;;8503557;27;19907;-52
2023/07/18 21:31:31;;;;;;;;;;;24.70;63.50;;;;;;8503734;27;19941;-50
2023/07/18 21:35:31;;;;;;;;;;;24.70;64.00;;;;;;8502727;27;19919;-54
2023/07/18 21:39:32;;;;;;;;;;;24.70;63.20;;;;;;8503517;27;19926;-48
2023/07/18 21:43:32;;;;;;;;;;;24.80;63.10;;;;;;8502451;27;19919;-52
2023/07/18 21:47:33;;;;;;;;;;;24.80;63.10;;;;;;8502988;27;19999;-52
2023/07/18 21:51:33;;;;;;;;;;;24.80;63.10;;;;;;8502327;27;20291;-54
2023/07/18 21:55:34;;;;;;;;;;;24.80;63.20;;;;;;8502102;27;20292;-52
2023/07/18 21:59:35;;;;;;;;;;;24.80;63.50;;;;;;8500334;27;19919;-51
2023/07/18 22:03:35;;;;;;;;;;;24.80;63.30;;;;;;8501418;27;19973;-53
2023/07/18 22:07:36;;;;;;;;;;;24.80;63.20;;;;;;8501300;27;19920;-53
2023/07/18 22:11:36;;;;;;;;;;;24.80;63.30;;;;;;8501434;27;19927;-50
2023/07/18 22:15:37;;;;;;;;;;;24.80;63.50;;;;;;8502030;27;19908;-52
2023/07/18 22:19:37;;;;;;;;;;;24.80;63.40;;;;;;8501475;27;19918;-50
2023/07/18 22:23:38;;;;;;;;;;;24.70;63.40;;;;;;8496781;27;19966;-47
2023/07/18 22:27:38;;;;;;;;;;;24.70;63.40;;;;;;8477335;27;19920;-51
2023/07/18 22:31:39;;;;;;;;;;;24.70;63.60;;;;;;8477067;27;19920;-50
2023/07/18 22:35:40;;;;;;;;;;;24.70;63.40;;;;;;8478544;27;20296;-52
2023/07/18 22:39:40;;;;;;;;;;;24.70;63.50;;;;;;8477880;27;20003;-49
2023/07/18 22:43:41;;;;;;;;;;;24.70;63.40;;;;;;8477562;27;19925;-52
2023/07/18 22:47:41;;;;;;;;;;;24.60;63.30;;;;;;8477767;27;20368;-54
2023/07/18 22:51:42;;;;;;;;;;;24.60;63.30;;;;;;8477646;27;19965;-50
2023/07/18 22:55:43;;;;;;;;;;;24.70;63.30;;;;;;8478045;27;19920;-53
2023/07/18 22:59:46;;;;;;;;;;;24.70;63.50;;;;;;8477529;27;20328;-53
2023/07/18 23:03:47;;;;;;;;;;;24.60;63.90;;;;;;8462249;27;19908;-51
2023/07/18 23:07:47;;;;;;;;;;;24.70;63.80;;;;;;8428810;28;20408;-52
2023/07/18 23:11:51;;;;;;;;;;;24.60;63.80;;;;;;8429027;28;19954;-49
2023/07/18 23:15:52;;;;;;;;;;;24.60;64.00;;;;;;8429321;28;19908;-51
2023/07/18 23:19:53;;;;;;;;;;;24.60;64.10;;;;;;8429542;28;19914;-52